Portage Glacier, Alaska
Current Conditions -  °F | °C
As of 8:53 AM on Friday 21 Nov 2014 (Local Time) from PATO Reporting Station
Light Rain Light Rain  
Wind Chill: 35°   Ceiling: 3600
Heat Index: 42°   Visibility: 10mi
Dew Point: 32°   Wind: 14mph
Humidity: 67%   Direction: 130°SE
Pressure: 28.97"   Gusts: 26mph
Location:  60.78°N, 148.85°W
Report Text: PATO 211753Z AUTO 13012G23KT 10SM -RA BKN036 OVC045 06/00 A2897 RMK AO2 PK WND 11028/1703 RAB03 SLP811 P0000 60000 T00560000 10078 20056 56008 TSNO
Loading
Personal Weather Stations






























Interactive Weather Map New forecast layout! Learn more

10-Day Weather Forecast

Advertisements
Track Severe Weather on mobile